UKV177 EGLL-ELLX
Flight info
| Callsign | UKV177 |
|---|---|
| Flight time | N/A |
| Altitude | 35000 |
| Route | DET L6 DVR UL9 KONAN DCT KOK DCT REMBA |
| Aircraft | A320/M-SDE3FGHIRWY/LB1 |
Departure
| Time | N/A |
|---|---|
| Airport | London Heathrow Airport (EGLL) |
Arrival
| Time | 2026-05-07 09:25 |
|---|---|
| Airport | Luxembourg-Findel International Airport (ELLX) |
| Time | Latitude | Longitude | Altitude | Speed | Heading |
|---|---|---|---|---|---|
| 2026-05-07 09:18 | 49.72061 | 6.02033 | 9062 ft | 286 kts | 207° |
| 2026-05-07 09:18 | 49.70277 | 6.00685 | 8358 ft | 284 kts | 207° |
| 2026-05-07 09:19 | 49.68507 | 5.99345 | 7668 ft | 282 kts | 207° |
| 2026-05-07 09:19 | 49.66751 | 5.98014 | 7002 ft | 280 kts | 207° |
| 2026-05-07 09:19 | 49.65007 | 5.96692 | 6380 ft | 277 kts | 206° |
| 2026-05-07 09:19 | 49.63336 | 5.95428 | 6178 ft | 257 kts | 206° |
| 2026-05-07 09:20 | 49.61793 | 5.94264 | 6065 ft | 239 kts | 206° |
| 2026-05-07 09:20 | 49.60320 | 5.93154 | 5964 ft | 234 kts | 206° |
| 2026-05-07 09:20 | 49.58864 | 5.92053 | 5857 ft | 232 kts | 206° |
| 2026-05-07 09:20 | 49.57340 | 5.91333 | 5682 ft | 229 kts | 181° |
| 2026-05-07 09:21 | 49.55798 | 5.91819 | 5499 ft | 228 kts | 157° |
| 2026-05-07 09:21 | 49.54358 | 5.92840 | 5320 ft | 227 kts | 142° |
| 2026-05-07 09:21 | 49.53464 | 5.94780 | 4910 ft | 230 kts | 103° |
| 2026-05-07 09:21 | 49.53610 | 5.97199 | 4424 ft | 229 kts | 62° |
| 2026-05-07 09:22 | 49.54421 | 5.99272 | 4110 ft | 225 kts | 57° |
| 2026-05-07 09:22 | 49.55235 | 6.01333 | 3797 ft | 224 kts | 58° |
| 2026-05-07 09:22 | 49.56002 | 6.03361 | 3491 ft | 213 kts | 59° |
| 2026-05-07 09:22 | 49.56719 | 6.05276 | 3213 ft | 201 kts | 59° |
| 2026-05-07 09:23 | 49.57409 | 6.07118 | 2953 ft | 195 kts | 59° |
| 2026-05-07 09:23 | 49.58065 | 6.08872 | 2692 ft | 182 kts | 59° |
| 2026-05-07 09:23 | 49.58680 | 6.10520 | 2433 ft | 172 kts | 58° |
| 2026-05-07 09:23 | 49.59253 | 6.12053 | 2232 ft | 156 kts | 59° |
| 2026-05-07 09:24 | 49.59774 | 6.13445 | 1987 ft | 145 kts | 58° |
| 2026-05-07 09:24 | 49.60267 | 6.14765 | 1746 ft | 140 kts | 58° |
| 2026-05-07 09:24 | 49.60745 | 6.16071 | 1555 ft | 139 kts | 57° |
| 2026-05-07 09:24 | 49.61225 | 6.17360 | 1400 ft | 138 kts | 57° |
| 2026-05-07 09:25 | 49.61706 | 6.18639 | 1264 ft | 137 kts | 57° |
| 2026-05-07 09:25 | 49.62146 | 6.19795 | 1209 ft | 108 kts | 60° |
| 2026-05-07 09:25 | 49.62469 | 6.20674 | 1213 ft | 82 kts | 60° |
| 2026-05-07 09:25 | 49.62619 | 6.21034 | 1217 ft | 27 kts | 46° |
| 2026-05-07 09:26 | 49.62771 | 6.21203 | 1206 ft | 17 kts | 30° |
| 2026-05-07 09:26 | 49.62838 | 6.21262 | 1201 ft | 0 kts | 31° |
| 2026-05-07 09:26 | 49.62843 | 6.21266 | 1201 ft | 2 kts | 31° |
| 2026-05-07 09:26 | 49.62861 | 6.21282 | 1200 ft | 4 kts | 30° |
| 2026-05-07 09:27 | 49.62892 | 6.21310 | 1199 ft | 8 kts | 30° |
| 2026-05-07 09:27 | 49.62956 | 6.21368 | 1198 ft | 14 kts | 30° |
| 2026-05-07 09:27 | 49.63081 | 6.21644 | 1197 ft | 18 kts | 62° |
| 2026-05-07 09:28 | 49.63134 | 6.21824 | 1198 ft | 19 kts | 65° |
| 2026-05-07 09:28 | 49.63193 | 6.22019 | 1198 ft | 21 kts | 64° |
| 2026-05-07 09:28 | 49.63302 | 6.22069 | 1196 ft | 21 kts | 320° |
| 2026-05-07 09:28 | 49.63354 | 6.21934 | 1196 ft | 12 kts | 279° |
| 2026-05-07 09:29 | 49.63396 | 6.21861 | 1195 ft | 6 kts | 332° |
| 2026-05-07 09:29 | 49.63403 | 6.21854 | 1195 ft | 2 kts | 332° |
| 2026-05-07 09:29 | 49.63410 | 6.21849 | 1195 ft | 0 kts | 329° |